Pawleys Island, South Carolina
Current Conditions -  °F | °C
As of 6:45 PM on Tuesday 25 Nov 2014 (Local Time) from KMYR Reporting Station
Overcast Overcast  
Wind Chill: 18°   Ceiling: 8000
Heat Index: 18°   Visibility: 7mi
Dew Point: 16°   Wind: 8mph
Humidity: 88%   Direction: 50°NE
Pressure: 30.05"   Gusts: NA
Location:  33.43°N, 79.12°W
Report Text: KMYR 252345Z 05007KT 7SM SCT004 OVC080 18/16 A3005
Loading
Personal Weather Stations






























Interactive Weather Map New forecast layout! Learn more

10-Day Weather Forecast

Advertisements
Track Severe Weather on mobile